Time;durP1;ratioP1;P1;durP2;ratioP2;P2;SDS_P1;SDS_P2;PMS_P1;PMS_P2;Temp;Humidity;BMP_temperature;BMP_pressure;BME280_temperature;BME280_humidity;BME280_pressure;Samples;Min_cycle;Max_cycle;Signal;HPM_P1;HPM_P2
2023/08/13 08:47:47;;;;;;;9.38;2.65;;;;;;;19.30;100.00;101513.09;5106095;27;20448;-66
2023/08/13 08:50:13;;;;;;;11.75;3.00;;;;;;;19.39;100.00;101504.34;5087637;28;20475;-66
2023/08/13 08:52:39;;;;;;;9.30;2.55;;;;;;;19.43;100.00;101505.44;5089927;28;20125;-66
2023/08/13 08:55:05;;;;;;;12.07;2.92;;;;;;;19.58;100.00;101507.44;5090033;28;20090;-66
2023/08/13 08:57:30;;;;;;;12.07;3.10;;;;;;;19.66;100.00;101499.50;5105438;28;20072;-66
2023/08/13 08:59:56;;;;;;;10.25;3.00;;;;;;;19.69;100.00;101500.03;5089732;28;20020;-66
2023/08/13 09:02:21;;;;;;;10.60;3.03;;;;;;;19.77;100.00;101502.28;5050350;28;20057;-66
2023/08/13 09:04:47;;;;;;;9.75;2.58;;;;;;;19.83;100.00;101495.72;5028894;28;20115;-66
2023/08/13 09:07:12;;;;;;;11.15;2.60;;;;;;;19.93;100.00;101494.91;5030757;28;20064;-66
2023/08/13 09:09:37;;;;;;;7.53;2.80;;;;;;;19.97;100.00;101487.78;5029490;28;20030;-66
2023/08/13 09:12:03;;;;;;;10.27;2.67;;;;;;;19.99;100.00;101489.16;5044026;28;20462;-67
2023/08/13 09:14:29;;;;;;;8.68;2.63;;;;;;;19.99;100.00;101491.09;5047294;28;20029;-68
2023/08/13 09:16:55;;;;;;;9.75;2.60;;;;;;;20.00;100.00;101490.81;5050733;28;20534;-68
2023/08/13 09:19:26;;;;;;;8.73;2.67;;;;;;;20.07;100.00;101486.97;5047776;28;20025;-69
2023/08/13 09:22:01;;;;;;;6.90;2.22;;;;;;;20.14;100.00;101484.75;5033141;28;20033;-67
2023/08/13 09:24:30;;;;;;;9.65;2.90;;;;;;;20.18;100.00;101480.38;5030333;28;20036;-67
2023/08/13 09:26:56;;;;;;;8.85;2.33;;;;;;;20.25;100.00;101478.19;5049430;28;20025;-68
2023/08/13 09:29:22;;;;;;;11.02;2.50;;;;;;;20.27;100.00;101484.22;5048334;28;20380;-69
2023/08/13 09:31:47;;;;;;;6.80;2.47;;;;;;;20.30;100.00;101486.41;5033179;28;20378;-68
2023/08/13 09:34:12;;;;;;;9.60;2.97;;;;;;;20.32;100.00;101472.38;5045227;28;20033;-69
2023/08/13 09:36:38;;;;;;;9.73;2.50;;;;;;;20.35;100.00;101469.94;5048870;28;20119;-67
2023/08/13 09:39:03;;;;;;;10.65;2.75;;;;;;;20.36;100.00;101468.81;5049034;28;20155;-67
2023/08/13 09:41:29;;;;;;;11.88;2.88;;;;;;;20.45;100.00;101460.03;5035890;28;20033;-66
2023/08/13 09:44:04;;;;;;;6.85;2.70;;;;;;;20.48;100.00;101459.47;5029090;28;20021;-67
2023/08/13 09:46:30;;;;;;;11.32;3.10;;;;;;;20.50;100.00;101458.09;5029157;28;20079;-67
2023/08/13 09:48:59;;;;;;;10.43;3.00;;;;;;;20.66;100.00;101456.16;5027466;28;20476;-67
2023/08/13 09:51:32;;;;;;;11.93;2.83;;;;;;;20.66;100.00;101458.91;5026246;28;20033;-66
2023/08/13 09:54:13;;;;;;;9.07;2.42;;;;;;;20.66;99.18;101455.34;5027666;28;20083;-66
2023/08/13 09:56:42;;;;;;;9.48;2.63;;;;;;;20.64;95.10;101452.84;5028646;28;20381;-66
2023/08/13 09:59:08;;;;;;;7.95;2.47;;;;;;;20.63;88.93;101448.44;5027495;28;20045;-66
2023/08/13 10:01:34;;;;;;;10.82;2.45;;;;;;;20.62;93.21;101451.47;5013754;28;20042;-67
2023/08/13 10:04:00;;;;;;;8.07;2.50;;;;;;;20.62;100.00;101455.06;4995775;28;20049;-67
2023/08/13 10:06:25;;;;;;;9.60;2.75;;;;;;;20.64;93.27;101447.34;4995326;28;20381;-67
2023/08/13 10:08:51;;;;;;;9.10;2.65;;;;;;;20.62;96.59;101446.81;5010940;28;20026;-67
2023/08/13 10:11:17;;;;;;;9.00;2.78;;;;;;;20.69;97.74;101441.84;5004250;28;20041;-67
2023/08/13 10:13:43;;;;;;;11.50;3.00;;;;;;;20.77;99.27;101445.13;5025813;28;20036;-70
2023/08/13 10:16:09;;;;;;;7.50;2.55;;;;;;;20.82;99.10;101447.88;5033808;28;20033;-67
2023/08/13 10:18:34;;;;;;;8.20;2.85;;;;;;;20.88;99.95;101446.78;5034539;28;20469;-66
2023/08/13 10:21:00;;;;;;;10.05;2.78;;;;;;;20.88;100.00;101441.28;5027347;28;20037;-66
2023/08/13 10:23:26;;;;;;;7.68;2.58;;;;;;;20.94;94.38;101434.66;5014911;28;20034;-67
2023/08/13 10:25:56;;;;;;;7.30;2.33;;;;;;;20.96;92.21;101437.94;5015102;28;20088;-67
2023/08/13 10:28:31;;;;;;;8.27;2.58;;;;;;;20.94;100.00;101437.41;5015277;28;20040;-70
2023/08/13 10:31:25;;;;;;;9.05;2.55;;;;;;;20.95;99.36;101435.47;5028345;28;20037;-69
2023/08/13 10:34:12;;;;;;;9.15;2.75;;;;;;;20.89;100.00;101434.66;5019691;28;20029;-66
2023/08/13 10:36:51;;;;;;;10.15;2.88;;;;;;;20.82;93.27;101431.38;5020111;28;20041;-67
2023/08/13 10:39:37;;;;;;;8.30;2.97;;;;;;;20.86;97.64;101437.97;5034673;28;20030;-68
2023/08/13 10:42:24;;;;;;;9.35;2.90;;;;;;;20.86;98.72;101437.97;5034638;28;20033;-67
2023/08/13 10:44:50;;;;;;;7.97;2.50;;;;;;;20.91;98.19;101434.38;5014649;28;20056;-67
2023/08/13 10:47:16;;;;;;;8.20;2.67;;;;;;;20.89;100.00;101442.91;5014658;28;20045;-68
2023/08/13 10:49:41;;;;;;;9.23;2.88;;;;;;;20.97;91.64;101423.06;5014475;28;20030;-67
2023/08/13 10:52:07;;;;;;;11.02;2.58;;;;;;;21.03;85.13;101426.59;5012561;28;20536;-68
2023/08/13 10:54:33;;;;;;;8.93;2.83;;;;;;;21.16;90.58;101426.00;5024179;28;20496;-67
2023/08/13 10:56:59;;;;;;;8.77;2.80;;;;;;;21.31;92.32;101422.34;5034329;28;20036;-68
2023/08/13 10:59:30;;;;;;;8.32;2.50;;;;;;;21.51;91.50;101432.44;5034043;28;20033;-66
2023/08/13 11:02:24;;;;;;;12.75;3.00;;;;;;;21.60;77.92;101427.16;5022511;28;20053;-66
2023/08/13 11:04:51;;;;;;;10.20;2.90;;;;;;;21.64;80.62;101424.69;4981258;28;20050;-68
2023/08/13 11:07:17;;;;;;;9.15;2.45;;;;;;;21.69;76.54;101419.94;4996069;28;20026;-68
2023/08/13 11:09:42;;;;;;;8.98;2.38;;;;;;;21.75;84.85;101426.25;5027553;28;20033;-68
2023/08/13 11:12:09;;;;;;;11.45;2.78;;;;;;;21.80;80.95;101425.38;5032955;28;20033;-68
2023/08/13 11:14:36;;;;;;;9.95;2.97;;;;;;;21.98;86.95;101413.66;5017341;28;20042;-67
2023/08/13 11:17:02;;;;;;;8.52;2.65;;;;;;;22.22;82.02;101416.50;5012837;28;20026;-67
2023/08/13 11:19:27;;;;;;;10.15;2.70;;;;;;;22.31;83.46;101411.19;5013805;28;20072;-67
2023/08/13 11:21:54;;;;;;;9.57;2.70;;;;;;;22.33;72.93;101417.25;5014007;28;20080;-68
2023/08/13 11:24:21;;;;;;;10.48;2.70;;;;;;;22.44;74.77;101416.03;5013740;28;20040;-68
2023/08/13 11:26:47;;;;;;;8.48;2.60;;;;;;;22.22;70.50;101418.41;5013712;28;20059;-68
2023/08/13 11:29:12;;;;;;;9.65;2.80;;;;;;;22.15;74.09;101412.41;5014062;28;20033;-68
2023/08/13 11:31:43;;;;;;;11.88;3.25;;;;;;;22.08;73.12;101419.09;5013649;28;20042;-68
2023/08/13 11:34:08;;;;;;;8.50;2.50;;;;;;;21.98;75.65;101419.16;5013136;28;20097;-68
2023/08/13 11:36:34;;;;;;;9.18;2.65;;;;;;;21.97;76.10;101413.94;5013573;28;20050;-68
2023/08/13 11:39:01;;;;;;;9.77;2.80;;;;;;;22.05;83.20;101419.66;5014779;28;20388;-68
2023/08/13 11:41:26;;;;;;;8.40;3.00;;;;;;;21.99;74.59;101418.06;5033244;28;20105;-67
2023/08/13 11:43:53;;;;;;;8.00;2.53;;;;;;;22.13;71.94;101407.19;5022446;28;20113;-68
2023/08/13 11:46:18;;;;;;;10.48;2.75;;;;;;;22.22;71.24;101402.72;5013304;28;20437;-69
2023/08/13 11:48:44;;;;;;;7.43;2.35;;;;;;;22.26;71.84;101402.94;5013354;28;20034;-68
2023/08/13 11:51:12;;;;;;;8.95;2.75;;;;;;;22.31;71.09;101405.66;5013580;28;20053;-67
2023/08/13 11:53:44;;;;;;;11.65;2.58;;;;;;;22.50;74.50;101403.00;5012557;28;20775;-68
2023/08/13 11:56:11;;;;;;;9.60;2.67;;;;;;;22.71;78.52;101403.59;4993613;28;20096;-68
2023/08/13 11:58:37;;;;;;;11.38;2.95;;;;;;;22.60;69.80;101396.53;4993723;28;20034;-68
2023/08/13 12:01:03;;;;;;;10.57;2.67;;;;;;;22.70;70.01;101395.63;4996580;28;20051;-68
2023/08/13 12:03:40;;;;;;;8.25;2.53;;;;;;;22.85;77.16;101397.38;5026270;28;20481;-67
2023/08/13 12:06:06;;;;;;;9.45;3.17;;;;;;;23.06;72.24;101393.22;5013232;28;20049;-69
2023/08/13 12:08:32;;;;;;;8.95;2.72;;;;;;;22.94;66.72;101390.09;5014724;28;20075;-68
2023/08/13 12:10:58;;;;;;;14.88;3.05;;;;;;;22.93;66.98;101388.44;5032968;28;20025;-68
2023/08/13 12:13:24;;;;;;;8.48;2.53;;;;;;;22.84;65.43;101391.00;5027865;28;20022;-68
2023/08/13 12:15:49;;;;;;;8.38;2.58;;;;;;;22.79;65.49;101393.84;5011575;28;20046;-68
2023/08/13 12:18:15;;;;;;;8.68;2.30;;;;;;;22.79;66.76;101385.56;5010146;28;20453;-67
2023/08/13 12:20:40;;;;;;;9.13;2.70;;;;;;;22.77;66.36;101385.88;5017430;28;20510;-69
2023/08/13 12:23:05;;;;;;;9.00;2.70;;;;;;;22.80;65.39;101385.28;5032783;28;20026;-69
2023/08/13 12:25:31;;;;;;;7.93;2.50;;;;;;;22.78;66.42;101376.47;5032544;28;20061;-68
2023/08/13 12:27:56;;;;;;;8.05;2.50;;;;;;;22.75;66.30;101385.34;5032746;28;20032;-68
2023/08/13 12:30:22;;;;;;;11.68;3.15;;;;;;;22.70;65.29;101382.63;5012128;28;20121;-67
2023/08/13 12:32:47;;;;;;;8.10;2.10;;;;;;;22.73;68.65;101384.81;5012752;28;20033;-67
2023/08/13 12:35:12;;;;;;;9.73;2.75;;;;;;;22.83;69.27;101376.41;5016067;28;20104;-67
2023/08/13 12:37:38;;;;;;;7.25;2.28;;;;;;;22.93;67.23;101375.47;5032419;28;20059;-68
2023/08/13 12:40:04;;;;;;;8.50;3.17;;;;;;;22.97;67.41;101373.75;5013043;28;20042;-67
2023/08/13 12:42:29;;;;;;;7.60;2.60;;;;;;;22.96;66.30;101366.59;5012806;28;20038;-68
2023/08/13 12:44:55;;;;;;;8.50;2.55;;;;;;;22.98;67.17;101369.88;5012625;28;20029;-68
2023/08/13 12:47:20;;;;;;;10.38;2.72;;;;;;;22.93;66.48;101366.34;5012795;28;20042;-67
2023/08/13 12:49:45;;;;;;;9.02;2.08;;;;;;;22.91;67.58;101363.09;5012274;28;20071;-66
2023/08/13 12:52:12;;;;;;;9.07;2.60;;;;;;;22.85;68.16;101358.75;5011821;28;20034;-67
2023/08/13 12:54:37;;;;;;;8.50;2.53;;;;;;;22.77;64.71;101352.75;5011820;28;20025;-66
2023/08/13 12:57:03;;;;;;;7.05;2.80;;;;;;;22.69;68.11;101358.09;5032508;28;20030;-66
2023/08/13 12:59:28;;;;;;;8.73;2.35;;;;;;;22.67;69.36;101346.56;5014502;28;20050;-67
2023/08/13 13:01:53;;;;;;;5.97;2.35;;;;;;;22.60;68.94;101350.50;5017851;28;20052;-66
2023/08/13 13:04:19;;;;;;;9.32;2.50;;;;;;;22.56;72.33;101356.91;5031208;28;20029;-66
2023/08/13 13:06:45;;;;;;;9.43;2.38;;;;;;;22.56;73.93;101354.13;5031569;28;20040;-66
2023/08/13 13:09:10;;;;;;;9.60;2.60;;;;;;;22.54;72.31;101356.34;5027336;28;20029;-67
2023/08/13 13:11:36;;;;;;;7.22;2.60;;;;;;;22.54;70.46;101356.34;5027712;28;20523;-68
2023/08/13 13:14:02;;;;;;;7.18;2.35;;;;;;;22.61;70.59;101365.91;5012490;28;20030;-67
2023/08/13 13:16:27;;;;;;;10.43;2.53;;;;;;;22.64;72.47;101359.81;5012452;28;20045;-67
2023/08/13 13:18:53;;;;;;;8.57;2.33;;;;;;;22.71;70.89;101356.69;5015557;28;20029;-70
2023/08/13 13:21:18;;;;;;;11.10;2.80;;;;;;;22.93;68.50;101358.91;5032553;28;20073;-68
2023/08/13 13:23:43;;;;;;;7.70;2.70;;;;;;;23.18;68.13;101362.47;5031390;28;20435;-67
2023/08/13 13:26:09;;;;;;;5.50;2.40;;;;;;;23.19;66.64;101347.53;5051778;28;20029;-68
2023/08/13 13:28:35;;;;;;;10.90;2.63;;;;;;;23.16;66.86;101354.47;5049565;28;20060;-68
2023/08/13 13:31:00;;;;;;;6.88;2.38;;;;;;;23.12;67.70;101350.66;5031627;28;20025;-68
2023/08/13 13:33:28;;;;;;;10.30;2.72;;;;;;;23.01;68.55;101351.91;5032002;28;20030;-68
2023/08/13 13:35:53;;;;;;;10.20;3.05;;;;;;;22.96;68.90;101357.47;5033243;28;20849;-67
2023/08/13 13:38:19;;;;;;;8.80;2.67;;;;;;;22.95;69.88;101353.91;5035799;28;20030;-68
2023/08/13 13:40:44;;;;;;;8.30;2.70;;;;;;;23.02;69.24;101353.53;5047037;28;20041;-68
2023/08/13 13:43:09;;;;;;;6.53;2.45;;;;;;;23.24;65.96;101352.16;5055665;28;20062;-68
2023/08/13 13:45:35;;;;;;;10.38;2.70;;;;;;;23.35;65.44;101340.66;5055337;28;20409;-68
2023/08/13 13:48:01;;;;;;;8.65;2.47;;;;;;;23.28;63.75;101333.88;5055569;28;20029;-68
2023/08/13 13:50:28;;;;;;;9.40;2.70;;;;;;;23.24;63.92;101343.88;5047232;28;20025;-68
2023/08/13 13:52:53;;;;;;;5.75;2.28;;;;;;;23.11;64.70;101340.72;5035288;28;20033;-69
2023/08/13 13:55:18;;;;;;;7.63;2.38;;;;;;;23.02;66.71;101342.50;5035666;28;20494;-69
2023/08/13 13:57:44;;;;;;;9.05;2.50;;;;;;;22.98;66.62;101344.22;5033654;28;20033;-68
2023/08/13 14:00:12;;;;;;;8.05;2.50;;;;;;;22.91;65.21;101349.28;5035257;28;20583;-69
2023/08/13 14:02:38;;;;;;;6.60;2.38;;;;;;;22.85;65.66;101347.72;5027641;28;20511;-69
2023/08/13 14:05:04;;;;;;;8.55;2.72;;;;;;;22.76;64.54;101340.06;5014172;28;20026;-69
2023/08/13 14:07:30;;;;;;;8.55;2.55;;;;;;;22.68;66.53;101332.47;5014969;28;20458;-68
2023/08/13 14:09:55;;;;;;;9.18;2.40;;;;;;;22.65;66.32;101335.81;5020089;28;20492;-67
2023/08/13 14:12:21;;;;;;;7.43;2.30;;;;;;;22.62;66.81;101333.66;5028985;28;20036;-71
2023/08/13 14:14:46;;;;;;;9.93;2.60;;;;;;;22.60;68.56;101335.84;5012572;28;20143;-67
2023/08/13 14:17:12;;;;;;;8.32;2.90;;;;;;;22.62;70.41;101328.13;5014705;28;20036;-67
2023/08/13 14:19:39;;;;;;;9.27;2.88;;;;;;;22.71;69.96;101323.59;5014373;28;20194;-67
2023/08/13 14:22:05;;;;;;;9.35;2.65;;;;;;;22.78;69.64;101329.59;5028181;28;20039;-67
2023/08/13 14:24:31;;;;;;;9.23;2.63;;;;;;;22.82;69.57;101327.84;5018288;28;20500;-68
2023/08/13 14:26:56;;;;;;;8.80;2.50;;;;;;;22.92;69.97;101326.09;5014017;28;20030;-67
2023/08/13 14:29:21;;;;;;;8.10;2.75;;;;;;;23.12;68.26;101317.53;5013228;28;20473;-67
2023/08/13 14:31:47;;;;;;;10.38;3.08;;;;;;;23.50;71.62;101314.72;5029860;28;20034;-67
2023/08/13 14:34:12;;;;;;;6.72;2.25;;;;;;;23.69;62.48;101316.66;5012852;28;20034;-66
2023/08/13 14:36:38;;;;;;;6.60;2.47;;;;;;;23.69;64.40;101311.13;5012351;28;20539;-67
2023/08/13 14:39:03;;;;;;;7.65;2.40;;;;;;;23.62;65.34;101319.78;5014785;28;20052;-68
2023/08/13 14:41:30;;;;;;;8.23;2.47;;;;;;;23.57;63.00;101313.53;5014810;28;20030;-67
2023/08/13 14:43:55;;;;;;;7.30;2.58;;;;;;;23.50;63.20;101317.50;5012780;28;20084;-68
2023/08/13 14:46:21;;;;;;;7.13;2.53;;;;;;;23.42;62.96;101315.44;5012727;28;20045;-68
2023/08/13 14:48:47;;;;;;;8.98;2.60;;;;;;;23.38;65.29;101311.63;5013264;28;20030;-68
2023/08/13 14:51:13;;;;;;;4.97;2.10;;;;;;;23.32;62.37;101315.59;5022838;28;20123;-68
2023/08/13 14:53:38;;;;;;;6.00;2.20;;;;;;;23.61;63.28;101314.56;5031906;28;20582;-68
2023/08/13 14:56:04;;;;;;;8.30;2.30;;;;;;;24.58;58.34;101304.50;5034672;28;20704;-67
2023/08/13 14:58:29;;;;;;;6.93;2.85;;;;;;;25.48;55.22;101311.34;5020302;28;20132;-67
2023/08/13 15:00:54;;;;;;;6.95;2.40;;;;;;;25.44;53.92;101307.59;5011884;28;20095;-67
2023/08/13 15:03:20;;;;;;;10.02;2.88;;;;;;;24.95;53.30;101310.88;5048904;28;20107;-68
2023/08/13 15:05:45;;;;;;;7.43;2.50;;;;;;;24.53;56.04;101301.81;5041365;28;20072;-67
2023/08/13 15:08:10;;;;;;;4.18;1.98;;;;;;;24.23;59.22;101320.66;5050799;28;20032;-67
2023/08/13 15:10:36;;;;;;;7.40;2.50;;;;;;;23.81;68.35;101321.69;5034240;28;20025;-67
2023/08/13 15:13:02;;;;;;;7.88;2.42;;;;;;;23.42;76.67;101326.47;5035365;28;20399;-67
2023/08/13 15:15:28;;;;;;;7.05;2.22;;;;;;;23.10;87.45;101333.59;5054016;28;20033;-72
2023/08/13 15:17:53;;;;;;;7.93;2.63;;;;;;;22.73;99.84;101332.38;5052017;28;20442;-66
2023/08/13 15:20:19;;;;;;;8.18;2.30;;;;;;;22.64;100.00;101334.16;5053108;28;20040;-67
2023/08/13 15:22:44;;;;;;;9.10;2.50;;;;;;;22.51;100.00;101337.63;5043394;28;20037;-67
2023/08/13 15:25:11;;;;;;;8.30;2.75;;;;;;;22.33;100.00;101337.28;5032420;28;20031;-67
2023/08/13 15:27:36;;;;;;;7.80;2.33;;;;;;;22.15;100.00;101341.59;5032313;28;20465;-67
2023/08/13 15:30:03;;;;;;;8.52;2.80;;;;;;;22.25;100.00;101343.41;5032841;28;20035;-67
2023/08/13 15:32:28;;;;;;;9.55;2.70;;;;;;;23.11;96.22;101339.91;5032723;28;20420;-69
2023/08/13 15:34:54;;;;;;;7.95;2.67;;;;;;;24.04;80.06;101331.00;5048823;28;20029;-67
2023/08/13 15:37:19;;;;;;;5.78;2.45;;;;;;;24.45;71.30;101337.69;5052777;28;20083;-67
2023/08/13 15:39:44;;;;;;;7.25;2.10;;;;;;;24.73;69.31;101333.78;5052854;28;20039;-68
2023/08/13 15:42:10;;;;;;;8.23;2.30;;;;;;;25.03;67.10;101330.66;5052661;28;20531;-68
2023/08/13 15:44:35;;;;;;;6.57;2.20;;;;;;;25.28;65.56;101335.59;5043750;28;20033;-67
2023/08/13 15:47:00;;;;;;;6.63;1.92;;;;;;;25.22;62.19;101339.63;5032327;28;20053;-67
2023/08/13 15:49:26;;;;;;;6.63;2.00;;;;;;;24.93;64.22;101337.25;5042500;28;20029;-68
2023/08/13 15:51:51;;;;;;;8.73;2.10;;;;;;;24.77;65.95;101345.06;5050607;28;20025;-67
2023/08/13 15:54:16;;;;;;;9.57;2.40;;;;;;;24.97;65.13;101340.22;5042195;28;20033;-67
2023/08/13 15:56:42;;;;;;;6.85;2.60;;;;;;;25.02;62.68;101334.56;5036120;28;20111;-67
2023/08/13 15:59:09;;;;;;;7.43;2.20;;;;;;;25.24;64.09;101334.59;5030832;28;20453;-70
2023/08/13 16:01:35;;;;;;;6.90;2.45;;;;;;;25.49;63.42;101329.59;5026439;28;20492;-68
